Time;durP1;ratioP1;P1;durP2;ratioP2;P2;SDS_P1;SDS_P2;PMS_P1;PMS_P2;Temp;Humidity;BMP_temperature;BMP_pressure;BME280_temperature;BME280_humidity;BME280_pressure;Samples;Min_cycle;Max_cycle;Signal;HPM_P1;HPM_P2
2022/07/17 00:00:25;;;;;;;8.33;3.00;;;;;;;9.36;74.56;100940.94;2148830;80;20972;-71
2022/07/17 00:03:26;;;;;;;7.33;3.37;;;;;;;9.32;74.50;100937.73;2183819;80;21497;-71
2022/07/17 00:06:28;;;;;;;6.60;3.22;;;;;;;9.30;74.49;100948.11;2183360;81;21543;-70
2022/07/17 00:09:29;;;;;;;6.83;3.52;;;;;;;9.28;74.42;100947.41;2182580;81;21492;-72
2022/07/17 00:12:30;;;;;;;8.43;3.00;;;;;;;9.25;74.33;100948.52;2179443;81;21081;-71
2022/07/17 00:15:32;;;;;;;7.78;3.30;;;;;;;9.23;74.48;100950.45;2179842;81;21519;-77
2022/07/17 00:18:33;;;;;;;7.17;3.75;;;;;;;9.23;74.39;100950.95;2174910;81;21015;-70
2022/07/17 00:21:34;;;;;;;8.03;3.40;;;;;;;9.20;74.21;100951.56;2172614;82;21023;-71
2022/07/17 00:24:35;;;;;;;6.75;2.37;;;;;;;9.17;74.21;100953.66;2167252;82;20976;-71
2022/07/17 00:27:37;;;;;;;8.30;2.98;;;;;;;9.17;74.16;100949.69;2173488;82;21020;-73
2022/07/17 00:30:38;;;;;;;7.20;3.10;;;;;;;9.14;74.00;100954.77;2174301;81;21075;-71
2022/07/17 00:33:39;;;;;;;3.08;2.60;;;;;;;9.09;73.99;100962.77;2114390;84;21024;-71
2022/07/17 00:36:41;;;;;;;9.73;3.20;;;;;;;9.04;73.97;100965.84;2171830;81;21059;-71
2022/07/17 00:39:42;;;;;;;7.70;3.30;;;;;;;9.04;74.37;100964.52;2134256;82;21112;-70
2022/07/17 00:42:43;;;;;;;5.25;3.05;;;;;;;9.03;74.48;100965.97;2105640;83;21030;-74
2022/07/17 00:45:44;;;;;;;4.20;3.17;;;;;;;9.03;74.54;100971.27;2108611;84;21020;-70
2022/07/17 00:48:45;;;;;;;6.92;3.30;;;;;;;9.02;74.50;100966.46;2103630;83;21038;-70
2022/07/17 00:51:46;;;;;;;9.28;2.85;;;;;;;8.97;74.21;100963.38;2109645;84;21026;-71
2022/07/17 00:54:47;;;;;;;8.38;3.30;;;;;;;8.91;74.29;100965.25;2106360;84;21030;-70
2022/07/17 00:57:51;;;;;;;5.00;2.92;;;;;;;8.87;74.32;100963.36;2109161;84;21003;-75
2022/07/17 01:00:55;;;;;;;9.93;3.77;;;;;;;8.86;74.23;100968.28;2107613;84;21062;-70
2022/07/17 01:03:56;;;;;;;6.53;3.37;;;;;;;8.86;74.73;100968.28;2108721;83;21587;-70
2022/07/17 01:06:59;;;;;;;7.70;2.90;;;;;;;8.83;74.58;100969.88;2107373;84;21383;-72
2022/07/17 01:10:01;;;;;;;5.15;3.30;;;;;;;8.79;74.46;100973.78;2081368;84;21070;-71
2022/07/17 01:13:03;;;;;;;4.35;3.08;;;;;;;8.80;74.83;100975.45;2109436;84;21027;-73
2022/07/17 01:16:05;;;;;;;4.70;3.27;;;;;;;8.81;74.83;100976.28;2115082;82;21059;-71
2022/07/17 01:19:07;;;;;;;42.93;3.33;;;;;;;8.77;74.68;100988.12;2169045;81;21486;-71
2022/07/17 01:22:08;;;;;;;4.35;3.05;;;;;;;8.70;74.62;100985.14;2167405;81;21481;-70
2022/07/17 01:25:11;;;;;;;9.63;3.02;;;;;;;8.67;74.65;100987.60;2173236;81;21020;-72
2022/07/17 01:28:14;;;;;;;10.50;3.20;;;;;;;8.65;74.58;100991.35;2170930;81;21015;-72
2022/07/17 01:31:15;;;;;;;12.80;2.92;;;;;;;8.59;74.64;100988.75;2171602;81;21475;-70
2022/07/17 01:34:16;;;;;;;8.08;2.90;;;;;;;8.58;74.67;100983.58;2175608;81;21065;-70
2022/07/17 01:37:17;;;;;;;11.40;2.75;;;;;;;8.56;74.71;100985.51;2149531;82;21523;-71
2022/07/17 01:40:19;;;;;;;6.15;2.27;;;;;;;8.52;74.67;100989.74;2171596;81;21022;-70
2022/07/17 01:43:20;;;;;;;6.80;2.92;;;;;;;8.47;74.66;100989.30;2174004;81;21037;-71
2022/07/17 01:46:22;;;;;;;7.55;2.70;;;;;;;8.45;74.83;100985.97;2174943;81;21039;-72
2022/07/17 01:49:23;;;;;;;7.42;2.60;;;;;;;8.40;74.67;100988.66;2171847;81;21006;-71
2022/07/17 01:52:25;;;;;;;9.53;2.83;;;;;;;8.38;74.91;100996.67;2166034;81;21001;-74
2022/07/17 01:55:26;;;;;;;5.70;2.50;;;;;;;8.35;74.77;100996.10;2171859;81;21013;-71
2022/07/17 01:58:27;;;;;;;6.92;2.40;;;;;;;8.29;74.70;100998.30;2168627;81;21041;-70
2022/07/17 02:01:29;;;;;;;7.40;3.30;;;;;;;8.27;74.90;100994.94;2170801;81;21112;-74
2022/07/17 02:04:31;;;;;;;9.63;3.12;;;;;;;8.30;75.10;100995.16;2171365;81;21027;-71
2022/07/17 02:07:33;;;;;;;7.40;2.37;;;;;;;8.34;75.22;100987.83;2168523;81;21500;-70
2022/07/17 02:10:35;;;;;;;8.63;2.58;;;;;;;8.33;75.12;100989.61;2173033;81;20995;-72
2022/07/17 02:13:36;;;;;;;7.00;2.58;;;;;;;8.30;75.03;100995.16;2174278;81;21088;-73
2022/07/17 02:16:37;;;;;;;6.92;2.95;;;;;;;8.22;74.78;100987.91;2170635;81;21066;-71
2022/07/17 02:19:38;;;;;;;12.75;2.85;;;;;;;8.18;75.00;100993.57;2163607;81;21039;-70
2022/07/17 02:22:41;;;;;;;7.35;2.33;;;;;;;8.20;75.15;100992.97;2156628;82;21358;-70
2022/07/17 02:25:42;;;;;;;6.15;2.47;;;;;;;8.19;75.13;100988.63;2156422;81;21669;-70
2022/07/17 02:28:43;;;;;;;8.33;2.58;;;;;;;8.18;75.11;100988.28;2159118;81;21586;-71
2022/07/17 02:31:44;;;;;;;4.95;2.70;;;;;;;8.21;75.18;100995.95;2158596;81;21545;-71
2022/07/17 02:34:45;;;;;;;;;;;;;;;8.19;75.18;101000.52;2177997;82;21018;-71
2022/07/17 02:37:46;;;;;;;4.45;2.40;;;;;;;8.16;75.24;101008.72;2174718;81;20191;-70
2022/07/17 02:40:47;;;;;;;6.60;2.33;;;;;;;8.13;75.23;101006.33;2176774;81;22589;-71
2022/07/17 02:43:48;;;;;;;5.85;2.42;;;;;;;8.11;75.29;101010.45;2172048;81;21024;-70
2022/07/17 02:46:49;;;;;;;3.70;2.10;;;;;;;8.09;75.17;101006.59;2172466;81;21088;-71
2022/07/17 02:49:51;;;;;;;8.05;2.20;;;;;;;8.08;75.26;100997.45;2174081;81;21028;-70
2022/07/17 02:52:53;;;;;;;9.88;2.52;;;;;;;8.11;75.29;101006.48;2177181;81;20999;-71
2022/07/17 02:55:54;;;;;;;4.12;2.35;;;;;;;8.11;75.30;101002.97;2173129;81;21502;-70
2022/07/17 02:58:55;;;;;;;;;;;;;;;8.09;75.16;101009.73;2180573;81;21054;-70
2022/07/17 03:01:56;;;;;;;5.35;2.20;;;;;;;8.09;75.20;101001.31;2176088;81;20169;-70
2022/07/17 03:04:57;;;;;;;6.37;2.45;;;;;;;8.07;75.06;101005.05;2174280;81;21475;-72
2022/07/17 03:07:58;;;;;;;6.45;2.72;;;;;;;8.08;75.10;101010.22;2172022;81;21007;-70
2022/07/17 03:10:59;;;;;;;;;;;;;;;8.07;75.15;101012.48;2176727;81;21019;-74
2022/07/17 03:14:00;;;;;;;13.85;3.20;;;;;;;8.07;75.15;101012.48;2174757;81;20181;-70
2022/07/17 03:17:01;;;;;;;10.93;2.80;;;;;;;8.09;75.16;101017.17;2175266;81;21546;-72
2022/07/17 03:20:03;;;;;;;6.20;2.72;;;;;;;8.13;75.33;101014.27;2175420;81;21097;-70
2022/07/17 03:23:04;;;;;;;9.15;2.58;;;;;;;8.17;75.30;101014.38;2177015;81;20984;-71
2022/07/17 03:26:05;;;;;;;8.50;2.98;;;;;;;8.21;75.36;101021.91;2173880;81;21073;-70
2022/07/17 03:29:06;;;;;;;11.03;2.85;;;;;;;8.25;75.47;101019.83;2175235;81;21514;-70
2022/07/17 03:32:07;;;;;;;9.83;2.45;;;;;;;8.39;75.54;101022.66;2168935;82;21167;-70
2022/07/17 03:35:13;;;;;;;11.08;3.30;;;;;;;8.53;75.43;101024.50;2171356;81;21490;-71
2022/07/17 03:38:12;;;;;;;9.83;3.12;;;;;;;8.77;75.38;101019.87;2171735;81;21036;-70
2022/07/17 03:41:13;;;;;;;9.33;2.85;;;;;;;9.05;75.32;101016.97;2176893;81;21004;-70
2022/07/17 03:44:14;;;;;;;6.17;2.50;;;;;;;9.45;75.17;101025.35;2148081;81;21531;-71
2022/07/17 03:47:15;;;;;;;6.72;2.65;;;;;;;9.81;74.90;101027.83;2175717;81;21493;-71
2022/07/17 03:50:16;;;;;;;8.55;2.27;;;;;;;10.19;74.52;101031.41;2168052;81;21102;-71
2022/07/17 03:53:17;;;;;;;12.82;2.70;;;;;;;10.67;74.39;101023.84;2173359;81;21081;-72
2022/07/17 03:56:18;;;;;;;15.08;2.85;;;;;;;11.12;74.04;101022.63;2175754;81;21083;-70
2022/07/17 03:59:19;;;;;;;10.80;2.50;;;;;;;11.64;73.50;101020.66;2174308;81;21054;-71
2022/07/17 04:02:20;;;;;;;10.55;3.25;;;;;;;12.14;73.02;101028.11;2175507;81;21063;-71
2022/07/17 04:05:21;;;;;;;4.42;2.60;;;;;;;12.67;72.39;101026.27;2168197;81;21004;-70
2022/07/17 04:08:22;;;;;;;9.25;2.83;;;;;;;13.15;71.52;101028.81;2171800;81;21511;-73
2022/07/17 04:11:23;;;;;;;8.48;2.70;;;;;;;13.53;70.70;101033.30;2178536;81;20998;-72
2022/07/17 04:14:24;;;;;;;9.48;2.92;;;;;;;13.84;69.93;101024.16;2148032;81;21019;-71
2022/07/17 04:17:25;;;;;;;6.78;2.80;;;;;;;14.26;69.62;101018.64;2174027;80;21505;-71
2022/07/17 04:20:26;;;;;;;7.37;2.47;;;;;;;14.71;68.98;101017.23;2184005;81;21071;-71
2022/07/17 04:23:28;;;;;;;7.85;2.60;;;;;;;14.94;68.01;101020.50;2199223;79;20995;-71
2022/07/17 04:26:29;;;;;;;9.58;2.98;;;;;;;15.22;67.66;101020.87;2199675;80;21009;-71
2022/07/17 04:29:30;;;;;;;16.93;3.85;;;;;;;15.73;67.34;101023.09;2201812;79;20994;-71
2022/07/17 04:32:30;;;;;;;7.35;2.47;;;;;;;16.11;66.21;101019.95;2203986;80;21566;-74
2022/07/17 04:35:34;;;;;;;15.80;2.83;;;;;;;16.28;65.70;101021.97;2203677;79;21599;-73
2022/07/17 04:38:36;;;;;;;6.25;2.75;;;;;;;16.61;64.91;101020.28;2199070;80;21013;-72
2022/07/17 04:41:37;;;;;;;5.45;2.55;;;;;;;16.88;64.37;101018.32;2203164;80;21016;-72
2022/07/17 04:44:38;;;;;;;4.60;2.90;;;;;;;17.25;63.93;101023.20;2203131;80;21134;-72
2022/07/17 04:47:39;;;;;;;6.12;2.67;;;;;;;17.62;63.34;101032.08;2198425;80;21049;-72
2022/07/17 04:50:40;;;;;;;8.00;2.75;;;;;;;17.79;62.36;101034.85;2202216;80;21001;-74
2022/07/17 04:53:41;;;;;;;8.43;3.08;;;;;;;18.01;62.28;101037.02;2204353;79;21442;-72
2022/07/17 04:56:42;;;;;;;6.97;3.02;;;;;;;18.23;61.19;101039.17;2205803;80;21647;-72
2022/07/17 04:59:44;;;;;;;5.55;3.12;;;;;;;18.47;61.11;101042.44;2201049;80;20946;-74
2022/07/17 05:02:45;;;;;;;6.70;2.85;;;;;;;18.68;60.17;101049.09;2201380;80;20985;-72
2022/07/17 05:05:46;;;;;;;4.78;2.72;;;;;;;19.03;60.50;101045.06;2202574;80;20951;-75
2022/07/17 05:08:47;;;;;;;6.58;2.62;;;;;;;19.03;59.13;101050.45;2201615;80;20995;-73
2022/07/17 05:11:48;;;;;;;5.75;2.95;;;;;;;19.11;59.25;101052.97;2201518;80;21014;-74
2022/07/17 05:14:49;;;;;;;9.70;2.60;;;;;;;19.19;58.20;101060.87;2201003;80;21017;-73
2022/07/17 05:17:50;;;;;;;5.53;2.90;;;;;;;19.29;58.13;101065.04;2200578;80;21510;-72
2022/07/17 05:20:51;;;;;;;4.75;2.77;;;;;;;19.45;57.18;101072.77;2197733;80;21108;-76
2022/07/17 05:23:52;;;;;;;8.58;2.92;;;;;;;19.43;57.20;101075.67;2157799;82;21002;-73
2022/07/17 05:26:53;;;;;;;5.55;3.10;;;;;;;19.45;56.96;101083.53;2158226;82;21031;-72
2022/07/17 05:29:54;;;;;;;6.60;3.20;;;;;;;19.80;56.80;101076.73;2147847;82;20958;-72
2022/07/17 05:32:55;;;;;;;7.12;2.62;;;;;;;20.01;56.45;101090.02;2144608;82;21068;-72
2022/07/17 05:35:57;;;;;;;6.70;3.27;;;;;;;20.21;55.49;101090.55;2239305;78;21531;-74
2022/07/17 05:38:58;;;;;;;9.58;2.30;;;;;;;19.97;55.33;101091.47;2245549;78;20998;-73
2022/07/17 05:42:00;;;;;;;4.45;2.37;;;;;;;20.25;55.76;101093.98;2243699;78;21516;-77
2022/07/17 05:45:02;;;;;;;5.62;2.60;;;;;;;20.69;55.44;101093.87;2243799;78;20993;-73
2022/07/17 05:48:03;;;;;;;4.47;2.10;;;;;;;21.04;54.70;101090.38;2245188;78;21141;-72
2022/07/17 05:51:05;;;;;;;7.85;2.58;;;;;;;21.08;53.84;101089.95;2248712;77;21017;-72
2022/07/17 05:54:06;;;;;;;9.35;2.40;;;;;;;21.19;53.13;101087.41;2245277;78;20923;-74
2022/07/17 05:57:13;;;;;;;9.33;2.40;;;;;;;21.17;53.58;101096.23;2243756;78;20985;-73
2022/07/17 06:00:18;;;;;;;5.83;2.40;;;;;;;21.30;52.63;101102.65;2244309;78;21041;-75
2022/07/17 06:03:19;;;;;;;5.87;2.42;;;;;;;21.12;52.94;101100.61;2243424;78;21449;-75
2022/07/17 06:06:21;;;;;;;5.65;2.37;;;;;;;21.36;51.99;101103.95;2245994;78;21089;-72
2022/07/17 06:09:26;;;;;;;3.77;2.08;;;;;;;21.26;51.67;101111.70;2245683;78;20969;-74
2022/07/17 06:12:27;;;;;;;5.20;2.25;;;;;;;21.42;51.49;101112.58;2242233;78;20961;-73
2022/07/17 06:15:28;;;;;;;7.55;2.60;;;;;;;21.47;51.67;101114.64;2248117;78;21027;-74
2022/07/17 06:18:29;;;;;;;7.67;2.42;;;;;;;21.71;51.34;101113.09;2247827;78;21053;-73
2022/07/17 06:21:30;;;;;;;10.58;2.15;;;;;;;21.59;50.89;101114.80;2240214;78;20990;-77
2022/07/17 06:24:31;;;;;;;6.28;2.40;;;;;;;21.45;51.07;101114.84;2244526;78;21017;-75
2022/07/17 06:27:34;;;;;;;6.08;2.00;;;;;;;21.65;50.82;101116.62;2245250;77;21054;-74
2022/07/17 06:30:35;;;;;;;8.28;2.30;;;;;;;21.73;50.72;101125.83;2195037;80;21043;-73
2022/07/17 06:33:36;;;;;;;4.45;2.05;;;;;;;21.81;50.42;101122.88;2190981;80;21093;-73
2022/07/17 06:36:38;;;;;;;7.20;2.17;;;;;;;22.03;50.31;101118.50;2190521;81;21005;-72
2022/07/17 06:39:43;;;;;;;4.95;2.30;;;;;;;22.28;49.86;101123.97;2181860;81;21107;-73
2022/07/17 06:42:46;;;;;;;8.88;2.17;;;;;;;22.43;49.45;101129.05;2180451;81;21066;-74
2022/07/17 06:45:53;;;;;;;7.62;2.15;;;;;;;22.48;49.71;101127.86;2183948;81;21466;-75
2022/07/17 06:48:53;;;;;;;4.60;1.95;;;;;;;22.66;48.94;101129.77;2188874;81;21665;-73
2022/07/17 06:51:57;;;;;;;8.93;1.67;;;;;;;22.45;48.19;101131.02;2184861;80;21509;-74
2022/07/17 06:55:08;;;;;;;5.50;1.77;;;;;;;22.26;47.86;101126.88;2187948;81;21526;-73
2022/07/17 06:58:18;;;;;;;4.45;1.80;;;;;;;22.20;48.33;101130.98;2184653;81;21011;-75
2022/07/17 07:01:20;;;;;;;5.87;1.98;;;;;;;22.63;48.88;101124.28;2183945;81;21025;-73
2022/07/17 07:04:23;;;;;;;6.42;1.65;;;;;;;23.02;47.75;101127.68;2181173;81;21058;-73
2022/07/17 07:07:24;;;;;;;5.62;1.87;;;;;;;22.97;46.87;101126.98;2183300;80;21034;-73
2022/07/17 07:10:28;;;;;;;11.93;3.12;;;;;;;22.91;47.36;101133.27;2184639;80;21021;-73
2022/07/17 07:13:29;;;;;;;3.55;1.70;;;;;;;22.92;45.94;101128.68;2184885;80;22251;-73
2022/07/17 07:16:39;;;;;;;4.45;1.80;;;;;;;22.67;46.66;101130.09;2187085;80;20969;-75
2022/07/17 07:19:57;;;;;;;7.15;2.10;;;;;;;22.73;46.43;101138.67;2182390;80;21018;-76
2022/07/17 07:22:46;;;;;;;5.53;1.70;;;;;;;22.89;46.62;101135.39;2163000;80;21566;-73
2022/07/17 07:25:58;;;;;;;8.10;1.80;;;;;;;23.03;46.32;101136.09;2173402;81;21062;-74
2022/07/17 07:28:59;;;;;;;3.75;1.57;;;;;;;23.08;46.22;101137.60;2173960;80;21096;-73
2022/07/17 07:32:00;;;;;;;4.37;1.62;;;;;;;23.32;45.62;101129.66;2171747;80;21037;-73
2022/07/17 07:35:01;;;;;;;3.80;1.87;;;;;;;23.30;45.70;101135.81;2170668;81;21064;-77
2022/07/17 07:38:06;;;;;;;5.05;2.22;;;;;;;23.43;45.99;101138.37;2152393;80;21025;-79
2022/07/17 07:41:09;;;;;;;8.03;2.00;;;;;;;23.51;46.10;101144.83;2120193;82;21555;-73
2022/07/17 07:44:10;;;;;;;4.75;1.77;;;;;;;23.85;45.77;101145.22;2144936;82;21137;-73
2022/07/17 07:47:11;;;;;;;6.62;1.70;;;;;;;24.07;44.69;101140.94;2173282;80;21421;-72
2022/07/17 07:50:13;;;;;;;3.62;1.55;;;;;;;23.86;44.37;101142.30;2172748;80;21089;-73
2022/07/17 07:53:16;;;;;;;7.10;2.00;;;;;;;23.92;44.25;101140.55;2169956;81;21045;-76
2022/07/17 07:56:17;;;;;;;5.87;1.70;;;;;;;24.02;44.00;101134.05;2171486;81;20990;-73
2022/07/17 07:59:18;;;;;;;4.35;1.90;;;;;;;24.07;44.00;101145.53;2172965;81;21113;-75
2022/07/17 08:02:19;;;;;;;4.45;1.77;;;;;;;24.27;43.87;101147.94;2172959;81;21001;-73
2022/07/17 08:05:20;;;;;;;4.50;1.70;;;;;;;24.29;43.15;101146.66;2170186;81;21049;-75
2022/07/17 08:08:21;;;;;;;6.72;1.90;;;;;;;24.47;43.27;101149.86;2173945;80;21061;-73
2022/07/17 08:11:28;;;;;;;4.22;1.40;;;;;;;24.63;43.21;101145.61;2131567;81;21610;-72
2022/07/17 08:14:29;;;;;;;4.50;1.70;;;;;;;24.61;42.67;101158.61;2152714;81;22204;-75
2022/07/17 08:17:30;;;;;;;5.12;1.80;;;;;;;24.49;42.90;101151.78;2157410;80;21064;-75
2022/07/17 08:20:31;;;;;;;5.33;1.77;;;;;;;24.65;43.02;101143.50;2176595;81;21085;-74
2022/07/17 08:23:33;;;;;;;7.22;2.02;;;;;;;24.55;42.51;101152.23;2148353;82;21047;-74
2022/07/17 08:26:36;;;;;;;6.25;1.37;;;;;;;24.32;42.29;101151.61;2148491;82;21065;-74
2022/07/17 08:29:37;;;;;;;5.30;1.75;;;;;;;24.49;42.55;101155.03;2146981;82;21475;-73
2022/07/17 08:32:44;;;;;;;6.97;1.62;;;;;;;24.39;42.23;101155.06;2146905;82;21040;-74
2022/07/17 08:35:46;;;;;;;2.92;1.65;;;;;;;24.25;41.60;101152.27;2150586;82;21018;-75
2022/07/17 08:38:47;;;;;;;8.40;2.20;;;;;;;23.98;41.75;101155.06;2152066;82;21038;-75
2022/07/17 08:41:49;;;;;;;7.42;1.95;;;;;;;23.61;41.65;101157.83;2154976;82;21051;-76
2022/07/17 08:44:50;;;;;;;5.67;1.95;;;;;;;23.58;41.86;101150.97;2145631;82;21415;-73
2022/07/17 08:47:54;;;;;;;6.60;1.82;;;;;;;23.20;42.11;101157.48;2151319;82;21051;-73
2022/07/17 08:50:59;;;;;;;11.93;1.70;;;;;;;22.64;42.30;101158.41;2139734;82;20974;-73
2022/07/17 08:54:03;;;;;;;6.72;1.72;;;;;;;22.54;41.45;101162.13;2149258;82;21480;-72
2022/07/17 08:57:04;;;;;;;4.97;1.50;;;;;;;22.20;41.94;101165.60;2151597;82;21059;-73
2022/07/17 09:00:10;;;;;;;4.55;1.70;;;;;;;21.75;42.12;101172.90;2157476;82;21073;-73
2022/07/17 09:03:17;;;;;;;7.10;1.60;;;;;;;21.30;42.28;101179.58;2141644;82;21069;-73
2022/07/17 09:06:23;;;;;;;4.35;1.82;;;;;;;20.81;42.59;101182.56;2146218;82;21073;-73
2022/07/17 09:09:24;;;;;;;8.25;1.87;;;;;;;20.84;43.41;101185.36;2145510;82;21067;-74
2022/07/17 09:12:32;;;;;;;6.08;2.10;;;;;;;21.18;43.50;101186.14;2146714;82;21020;-73
2022/07/17 09:15:53;;;;;;;5.33;1.47;;;;;;;21.13;43.72;101185.95;2146399;80;21500;-73
2022/07/17 09:18:54;;;;;;;6.62;1.95;;;;;;;21.29;43.47;101182.80;2123293;81;21129;-73
2022/07/17 09:22:21;;;;;;;3.50;1.80;;;;;;;21.81;43.68;101178.26;2144902;82;20988;-74
2022/07/17 09:25:45;;;;;;;4.80;1.55;;;;;;;22.40;42.78;101181.68;2112247;82;21026;-73
2022/07/17 09:28:48;;;;;;;5.08;1.60;;;;;;;22.87;42.90;101175.91;2115520;82;21011;-75
2022/07/17 09:31:54;;;;;;;3.00;1.25;;;;;;;23.04;42.53;101179.72;2114074;83;20997;-73
2022/07/17 09:35:01;;;;;;;6.37;1.77;;;;;;;22.51;41.31;101181.50;2091077;82;21026;-73
2022/07/17 09:38:05;;;;;;;4.90;1.50;;;;;;;21.74;41.80;101181.53;2113767;82;21071;-75
2022/07/17 09:41:20;;;;;;;5.58;1.87;;;;;;;21.47;42.56;101183.49;2144805;82;20942;-73
2022/07/17 09:44:21;;;;;;;4.65;1.65;;;;;;;21.88;42.87;101176.36;2119666;82;21058;-74
2022/07/17 09:47:26;;;;;;;6.85;1.60;;;;;;;22.43;42.12;101170.95;2117172;82;20969;-73
2022/07/17 09:50:28;;;;;;;4.58;1.40;;;;;;;22.67;41.33;101163.91;2112576;83;21549;-73
2022/07/17 09:53:32;;;;;;;3.42;1.47;;;;;;;23.15;40.33;101167.33;2112654;82;21515;-74
2022/07/17 09:56:37;;;;;;;3.00;1.47;;;;;;;23.38;40.22;101163.94;2091428;83;21559;-74
2022/07/17 09:59:40;;;;;;;6.30;1.40;;;;;;;23.66;40.55;101164.21;2115914;83;22001;-74
2022/07/17 10:02:43;;;;;;;6.20;1.22;;;;;;;23.83;40.21;101169.03;2114601;82;20996;-74
2022/07/17 10:05:45;;;;;;;6.80;1.47;;;;;;;24.07;40.25;101161.27;2120248;82;21062;-73
2022/07/17 10:08:49;;;;;;;3.98;1.32;;;;;;;24.35;39.46;101157.10;2118570;82;20991;-78
2022/07/17 10:11:53;;;;;;;4.72;1.32;;;;;;;23.86;38.72;101165.87;2144705;82;21659;-75
2022/07/17 10:18:08;;;;;;;6.15;1.65;;;;;;;22.88;39.33;101166.72;2109807;82;21094;-73
2022/07/17 10:21:14;;;;;;;6.12;1.45;;;;;;;22.51;39.79;101162.58;2145369;82;21046;-73
2022/07/17 10:24:19;;;;;;;5.37;1.45;;;;;;;22.62;40.16;101156.98;2151884;81;21021;-73
2022/07/17 10:30:33;;;;;;;4.08;1.40;;;;;;;23.12;40.29;101161.83;2144942;81;21055;-74
2022/07/17 10:33:43;;;;;;;5.70;1.40;;;;;;;23.21;40.13;101160.48;2149877;81;21078;-73
2022/07/17 10:36:45;;;;;;;5.97;1.60;;;;;;;23.44;38.90;101153.55;2148692;81;21046;-78
2022/07/17 10:40:06;;;;;;;4.92;1.50;;;;;;;23.44;39.24;101156.26;2152221;81;21296;-73
2022/07/17 10:43:10;;;;;;;4.67;1.40;;;;;;;23.50;38.98;101158.05;2149168;81;21069;-73
2022/07/17 10:46:16;;;;;;;5.20;1.85;;;;;;;23.83;38.97;101157.66;2147442;81;21095;-74
2022/07/17 10:49:20;;;;;;;4.47;1.27;;;;;;;23.97;38.84;101155.59;2154005;81;21011;-73
2022/07/17 10:52:27;;;;;;;4.95;1.82;;;;;;;23.76;39.11;101159.63;2149144;81;21021;-73
2022/07/17 10:55:34;;;;;;;3.10;1.20;;;;;;;23.49;38.41;101159.94;2155029;81;21027;-74
2022/07/17 10:58:44;;;;;;;8.25;1.20;;;;;;;23.32;38.65;101154.02;2154671;81;20969;-75
2022/07/17 11:01:44;;;;;;;2.72;1.60;;;;;;;23.50;38.57;101156.17;2146544;81;21063;-74
2022/07/17 11:04:46;;;;;;;4.05;1.27;;;;;;;23.82;37.94;101152.45;2157102;81;21559;-74
2022/07/17 11:08:02;;;;;;;6.87;1.60;;;;;;;24.02;37.83;101146.25;2155254;81;20993;-74
2022/07/17 11:11:03;;;;;;;5.28;1.67;;;;;;;24.04;38.07;101144.11;2151351;81;20983;-73
2022/07/17 11:14:22;;;;;;;5.55;1.47;;;;;;;24.03;38.08;101145.72;2147418;81;21334;-74
2022/07/17 11:17:25;;;;;;;4.28;1.52;;;;;;;23.94;37.50;101147.93;2129587;81;21093;-72
2022/07/17 11:20:30;;;;;;;2.87;1.32;;;;;;;23.73;37.94;101148.42;2147327;81;21006;-72
2022/07/17 11:23:35;;;;;;;4.17;1.70;;;;;;;23.76;37.00;101143.36;2147105;82;21020;-72
2022/07/17 11:26:38;;;;;;;4.40;1.45;;;;;;;23.76;37.12;101142.54;2140714;82;21062;-71
2022/07/17 11:29:41;;;;;;;7.53;1.65;;;;;;;23.63;38.21;101151.13;2144309;80;21014;-72
2022/07/17 11:32:57;;;;;;;5.90;1.50;;;;;;;23.59;38.53;101144.49;2155119;82;20990;-72
2022/07/17 11:35:54;;;;;;;3.87;1.85;;;;;;;23.51;38.47;101144.83;2139143;82;21051;-73
2022/07/17 11:39:00;;;;;;;3.55;1.37;;;;;;;23.68;38.85;101141.79;2144199;82;21108;-76
2022/07/17 11:42:02;;;;;;;5.33;1.62;;;;;;;23.60;38.39;101139.92;2149988;82;21029;-72
2022/07/17 11:45:07;;;;;;;5.50;1.42;;;;;;;23.74;38.78;101144.14;2144118;82;21025;-71
2022/07/17 11:48:08;;;;;;;7.33;1.50;;;;;;;24.06;38.55;101142.00;2148509;82;21043;-72
2022/07/17 11:51:10;;;;;;;4.12;1.37;;;;;;;23.92;37.50;101140.02;2150111;82;20996;-72
2022/07/17 11:54:16;;;;;;;4.15;1.55;;;;;;;23.80;37.27;101145.11;2149848;80;21057;-72
2022/07/17 11:57:20;;;;;;;5.42;1.65;;;;;;;23.92;36.73;101144.61;2152669;82;21024;-72
2022/07/17 12:00:25;;;;;;;3.75;1.65;;;;;;;23.92;36.80;101139.20;2145557;82;20992;-73
2022/07/17 12:03:28;;;;;;;3.02;1.50;;;;;;;24.08;35.90;101127.70;2115034;82;21048;-74
2022/07/17 12:06:30;;;;;;;6.22;1.50;;;;;;;24.04;36.96;101135.16;2147581;82;21446;-72
2022/07/17 12:09:33;;;;;;;3.50;1.40;;;;;;;24.01;37.17;101130.20;2148260;82;21011;-72
2022/07/17 12:12:37;;;;;;;4.45;1.47;;;;;;;24.05;36.84;101124.63;2143710;80;21004;-72
2022/07/17 12:15:48;;;;;;;3.52;1.60;;;;;;;24.15;37.36;101129.77;2147182;82;21081;-71
2022/07/17 12:19:03;;;;;;;3.83;1.35;;;;;;;24.04;36.76;101123.78;2118802;81;21073;-76
2022/07/17 12:22:05;;;;;;;3.37;1.50;;;;;;;24.01;36.80;101125.61;2156736;82;21044;-72
2022/07/17 12:25:11;;;;;;;2.83;1.40;;;;;;;24.17;36.89;101120.05;2215401;79;21002;-72
2022/07/17 12:28:10;;;;;;;4.55;1.37;;;;;;;24.29;36.51;101115.47;2244809;78;21006;-72
2022/07/17 12:31:14;;;;;;;3.55;1.32;;;;;;;24.37;37.29;101120.55;2243536;78;21072;-72
2022/07/17 12:34:15;;;;;;;7.58;1.57;;;;;;;24.60;36.69;101118.95;2243252;78;21062;-72
2022/07/17 12:37:20;;;;;;;1.67;1.10;;;;;;;24.63;36.13;101110.34;2244014;78;21595;-73
2022/07/17 12:40:26;;;;;;;4.12;1.52;;;;;;;24.68;35.83;101127.28;2243154;78;21087;-71
2022/07/17 12:43:27;;;;;;;4.30;1.45;;;;;;;24.52;36.03;101113.88;2239731;78;20985;-76
2022/07/17 12:46:28;;;;;;;3.67;1.20;;;;;;;24.43;36.20;101114.75;2242005;78;20954;-72
2022/07/17 12:49:32;;;;;;;4.78;1.47;;;;;;;24.44;36.07;101111.50;2243047;78;21084;-74
2022/07/17 12:52:33;;;;;;;3.58;1.57;;;;;;;24.42;35.72;101110.91;2243977;78;20982;-74
2022/07/17 12:55:36;;;;;;;3.17;1.10;;;;;;;24.26;36.53;101115.94;2244081;78;21026;-73
2022/07/17 12:58:38;;;;;;;2.75;1.50;;;;;;;24.35;36.54;101119.13;2241183;78;21430;-75
2022/07/17 13:01:42;;;;;;;3.42;1.45;;;;;;;24.53;35.83;101108.77;2243565;78;21013;-74
2022/07/17 13:04:45;;;;;;;5.40;1.42;;;;;;;24.49;35.76;101120.59;2239290;78;21076;-75
2022/07/17 13:07:53;;;;;;;3.05;1.37;;;;;;;24.38;35.38;101119.52;2242510;78;20974;-74
2022/07/17 13:10:57;;;;;;;3.83;1.45;;;;;;;24.25;35.43;101117.55;2195857;80;21030;-74
2022/07/17 13:14:06;;;;;;;7.10;1.10;;;;;;;24.12;35.85;101110.44;2188138;80;21075;-74
2022/07/17 13:17:16;;;;;;;2.87;1.27;;;;;;;23.99;35.40;101108.77;2159506;82;21001;-74
2022/07/17 13:20:29;;;;;;;4.30;1.47;;;;;;;23.90;35.69;101103.36;2174083;80;21506;-74
2022/07/17 13:23:34;;;;;;;4.17;1.47;;;;;;;23.79;35.25;101104.97;2176969;81;20925;-76
2022/07/17 13:26:35;;;;;;;3.10;1.40;;;;;;;23.68;35.07;101104.36;2174925;80;21047;-77
2022/07/17 13:29:37;;;;;;;3.77;1.35;;;;;;;23.52;35.37;101097.72;2171861;81;21619;-74
2022/07/17 13:32:46;;;;;;;2.83;1.20;;;;;;;23.46;35.40;101101.34;2172897;81;21534;-79
2022/07/17 13:35:47;;;;;;;2.83;1.42;;;;;;;23.54;35.49;101095.62;2178776;81;21048;-74
2022/07/17 13:38:48;;;;;;;6.25;1.65;;;;;;;23.50;35.35;101091.70;2170228;81;20975;-76
2022/07/17 13:41:50;;;;;;;2.40;1.12;;;;;;;23.50;35.81;101102.00;2175335;81;21024;-74
2022/07/17 13:44:51;;;;;;;4.17;1.85;;;;;;;23.68;35.66;101088.96;2171795;81;20938;-74
2022/07/17 13:47:52;;;;;;;5.35;1.70;;;;;;;23.69;35.08;101090.60;2175984;81;20997;-73
2022/07/17 13:50:53;;;;;;;7.35;1.82;;;;;;;23.60;35.41;101091.17;2172576;81;21092;-73
2022/07/17 13:53:54;;;;;;;2.05;1.30;;;;;;;23.53;35.01;101083.64;2174369;81;21043;-77
2022/07/17 13:56:56;;;;;;;2.95;1.40;;;;;;;23.52;35.59;101084.18;2175165;81;21509;-73
2022/07/17 13:59:58;;;;;;;4.05;1.62;;;;;;;23.58;35.78;101085.14;2175441;81;21081;-72
2022/07/17 14:03:00;;;;;;;2.52;1.40;;;;;;;23.67;36.06;101073.74;2175674;81;21002;-74
2022/07/17 14:06:02;;;;;;;4.95;1.60;;;;;;;23.71;35.84;101079.05;2170657;81;20983;-73
2022/07/17 14:09:04;;;;;;;5.42;1.72;;;;;;;23.66;35.76;101077.52;2172218;81;21506;-73
2022/07/17 14:12:05;;;;;;;2.58;1.20;;;;;;;23.60;35.64;101078.44;2171368;81;20982;-73
2022/07/17 14:15:07;;;;;;;4.55;1.60;;;;;;;23.59;36.21;101068.64;2173272;81;21034;-74
2022/07/17 14:18:08;;;;;;;4.65;1.60;;;;;;;23.54;35.70;101071.74;2170702;81;21024;-77